Redwood City, CA (94063)

4:05 AM PDT on September 01, 2015 (GMT -0700)
Friendly Acres | | Change Station
CLOSE
Current Station
Personal Weather Station
Location: Redwood City, CA
Elevation: 16 ft
Nearby Weather Stations

Elev 16 ft 37.48 °N, 122.19 °W | Updated 12 seconds ago

Clear
Clear
57.4 °F
Feels Like 57.4 °F
N
0.0
Wind Variable Wind from SSW
Gusts 0.0 mph

Today
High -- | Low -- °F
--% Chance of Precip.
Yesterday
High -- | Low -- °F
Precip. -- in
6:39 AM 7:37 PM
Waning Gibbous, 89% visible
Pressure 29.88 in
Visibility 10.0 miles
Clouds Clear
Dew Point 55 °F
Humidity 91%
Rainfall 0.00 in
Snow Depth Not available.
UV 0.0 out of 12
Pollen 6.60 out of 12
Air Quality Not available.
Flu Activity Not available.
METAR KSQL 011055Z AUTO 00000KT 10SM CLR 16/13 A2988 RMK AO2
Pressure 29.88 in
Visibility 10.0 miles
Clouds Clear
Dew Point 55 °F
Humidity 91%
Rainfall 0.00 in
Snow Depth Not available.
UV 0.0 out of 12
Pollen 6.60 out of 12
Air Quality Not available.
Flu Activity Not available.
METAR KSQL 011055Z AUTO 00000KT 10SM CLR 16/13 A2988 RMK AO2

10-Day Weather Forecast

×

Almanac

Astronomy

Sep. 01, 2015 Rise Set
Actual Time
Civil Twilight
Nautical Twilight
Astronomical Twilight
Moon
Length of Visible Light
Length of Day
Tomorrow will be .
, % of the Moon is Illuminated

Today's Extremes

State Highs State Lows

Community

WunderPhotos

Upload Photos

1,851,501 photos uploaded!

WunderBlogs® & News

Nearby

Air Quality

  Air Quality AQ Index Pollutant
Not available.

Snow Depth

Station Depth Elevation

Earthquake Activity

City Distance Mag. Time & Date
Minimum magnitude displayed is 2.5.

Coastal Water Temperatures

Place Temperature

Stations

Nearby Weather Stations

Station Location Temp. Windchill Dew Point Humidity Wind Precip. Elev Updated Type